This is the latest recevied weather packets stored in our database for station/object WX7FGZ-3. If no packets are shown the sender has not sent any weather packets the latest 10 day(s).
| Time | Temp. | Humidity | Pressure | Rain* | Wind** | Luminosity | Snow |
|---|---|---|---|---|---|---|---|
| 1777946695 | 13.89° C | 18% | 1005.4 hPa | 0 mm | - | - | - |
| 1777946095 | 13.89° C | 18% | 1005.6 hPa | 0 mm | - | - | - |
| 1777945795 | 13.89° C | 18% | 1005.7 hPa | 0 mm | - | - | - |
| 1777945494 | 14.44° C | 18% | 1005.5 hPa | 0 mm | - | - | - |
| 1777945274 | 17.22° C | 27% | 1005.2 hPa | 0 mm | - | - | - |
| 1777945194 | 14.44° C | 19% | 1005.4 hPa | 0 mm | - | - | - |
| 1777944293 | 15° C | 20% | 1005.1 hPa | 0 mm | - | - | - |
| 1777943993 | 15° C | 21% | 1005 hPa | 0 mm | - | - | - |
| 1777943692 | 15° C | 22% | 1005 hPa | 0 mm | - | - | - |
| 1777943392 | 15° C | 23% | 1004.9 hPa | 0 mm | - | - | - |
| 1777942792 | 15.56° C | 24% | 1005 hPa | 0 mm | - | - | - |
| 1777942491 | 15.56° C | 24% | 1005 hPa | 0 mm | - | - | - |
| 1777942191 | 15.56° C | 23% | 1005.1 hPa | 0 mm | - | - | - |
| 1777941891 | 15.56° C | 23% | 1005.1 hPa | 0 mm | - | - | - |
| 1777941592 | 15.56° C | 24% | 1005.2 hPa | 0 mm | - | - | - |
| 1777941290 | 15.56° C | 24% | 1005.2 hPa | 0 mm | - | - | - |
| 1777940990 | 15.56° C | 25% | 1005.1 hPa | 0 mm | - | - | - |
| 1777940690 | 16.11° C | 24% | 1005.1 hPa | 0 mm | - | - | - |
| 1777940390 | 16.11° C | 24% | 1005 hPa | 0 mm | - | - | - |
| 1777940089 | 16.11° C | 23% | 1005.2 hPa | 0 mm | - | - | - |
| 1777939789 | 16.11° C | 23% | 1005.3 hPa | 0 mm | - | - | - |
| 1777939489 | 16.67° C | 23% | 1005.1 hPa | 0 mm | - | - | - |
| 1777938588 | 16.67° C | 22% | 1005 hPa | 0 mm | - | - | - |
| 1777938287 | 16.67° C | 22% | 1005 hPa | 0 mm | - | - | - |
| 1777937386 | 17.22° C | 20% | 1004.8 hPa | 0 mm | - | - | - |
* Rain latest hour (hover to see other rain measurements)
** Current wind speed in m/s (hover to see current wind gust speed)